createdAt,value
2023-01-17T00:02:23.892Z,3.09
2023-01-17T00:05:10.686Z,3.01
2023-01-17T00:07:57.366Z,2.94
2023-01-17T00:10:27.309Z,2.89
2023-01-17T00:12:57.992Z,2.87
2023-01-17T00:15:27.940Z,2.88
2023-01-17T00:17:56.011Z,2.90
2023-01-17T00:20:45.628Z,2.97
2023-01-17T00:23:38.156Z,3.10
2023-01-17T00:26:09.781Z,3.24
2023-01-17T00:28:39.794Z,3.38
2023-01-17T00:31:09.938Z,3.57
2023-01-17T00:33:38.300Z,3.79
2023-01-17T00:36:07.102Z,4.00
2023-01-17T00:38:38.537Z,4.18
2023-01-17T00:41:09.951Z,4.34
2023-01-17T00:43:56.681Z,4.50
2023-01-17T00:46:43.387Z,4.64
2023-01-17T00:49:30.824Z,4.74
2023-01-17T00:52:17.327Z,4.81
2023-01-17T00:55:03.942Z,4.87
2023-01-17T00:57:51.074Z,4.87
2023-01-17T01:00:38.489Z,4.87
2023-01-17T01:03:29.888Z,4.86
2023-01-17T01:06:16.629Z,4.86
2023-01-17T01:09:03.610Z,4.84
2023-01-17T01:11:50.241Z,4.80
2023-01-17T01:14:37.430Z,4.74
2023-01-17T01:17:24.133Z,4.69
2023-01-17T01:20:10.984Z,4.66
2023-01-17T01:22:57.656Z,4.66
2023-01-17T01:25:44.558Z,4.62
2023-01-17T01:28:33.325Z,4.56
2023-01-17T01:31:21.513Z,4.55
2023-01-17T01:33:53.707Z,4.57
2023-01-17T01:36:22.315Z,4.55
2023-01-17T01:38:50.417Z,4.53
2023-01-17T01:41:18.558Z,4.55
2023-01-17T01:43:46.515Z,4.58
2023-01-17T01:46:30.500Z,4.59
2023-01-17T01:49:19.012Z,4.58
2023-01-17T01:51:53.031Z,4.58
2023-01-17T01:54:25.820Z,4.57
2023-01-17T01:56:56.697Z,4.56
2023-01-17T01:59:26.173Z,4.51
2023-01-17T02:01:56.206Z,4.43
2023-01-17T02:04:26.710Z,4.39
2023-01-17T02:07:07.414Z,4.46
2023-01-17T02:09:35.529Z,4.50
2023-01-17T02:12:05.040Z,4.50
2023-01-17T02:14:33.106Z,4.52
2023-01-17T02:17:04.353Z,4.54
2023-01-17T02:19:47.599Z,4.56
2023-01-17T02:22:40.532Z,4.60
2023-01-17T02:25:44.744Z,4.64
2023-01-17T02:28:27.872Z,4.65
2023-01-17T02:31:09.562Z,4.62
2023-01-17T02:33:47.047Z,4.64
2023-01-17T02:36:28.235Z,4.72
2023-01-17T02:39:08.309Z,4.81
2023-01-17T02:41:51.500Z,4.87
2023-01-17T02:44:21.013Z,4.92
2023-01-17T02:46:53.013Z,4.96
2023-01-17T02:49:26.679Z,4.98
2023-01-17T02:51:57.478Z,4.98
2023-01-17T02:54:50.552Z,4.97
2023-01-17T02:57:33.078Z,4.97
2023-01-17T03:00:01.354Z,4.99
2023-01-17T03:03:02.398Z,4.98
2023-01-17T03:05:42.706Z,4.97
2023-01-17T03:08:13.024Z,4.95
2023-01-17T03:10:42.685Z,4.91
2023-01-17T03:13:10.653Z,4.86
2023-01-17T03:15:40.236Z,4.84
2023-01-17T03:18:14.173Z,4.77
2023-01-17T03:20:42.541Z,4.75
2023-01-17T03:23:10.751Z,4.71
2023-01-17T03:25:38.893Z,4.68
2023-01-17T03:28:07.278Z,4.58
2023-01-17T03:30:35.455Z,4.52
2023-01-17T03:33:03.714Z,4.49
2023-01-17T03:35:31.896Z,4.46
2023-01-17T03:38:00.268Z,4.45
2023-01-17T03:40:28.336Z,4.45
2023-01-17T03:42:56.279Z,4.45
2023-01-17T03:45:24.381Z,4.44
2023-01-17T03:47:52.517Z,4.41
2023-01-17T03:50:20.714Z,4.42
2023-01-17T03:52:48.994Z,4.48
2023-01-17T03:55:17.578Z,4.54
2023-01-17T03:57:45.644Z,4.57
2023-01-17T04:00:14.328Z,4.59
2023-01-17T04:02:42.433Z,4.63
2023-01-17T04:05:10.894Z,4.74
2023-01-17T04:07:39.272Z,4.80
2023-01-17T04:10:08.264Z,4.85
2023-01-17T04:12:36.524Z,4.88
2023-01-17T04:15:05.006Z,4.89
2023-01-17T04:17:33.683Z,4.91
2023-01-17T04:20:01.873Z,4.93
2023-01-17T04:22:31.793Z,4.93
2023-01-17T04:24:59.964Z,4.93
2023-01-17T04:27:28.230Z,4.95
2023-01-17T04:29:56.827Z,4.96
2023-01-17T04:32:25.089Z,4.98
2023-01-17T04:34:53.379Z,5.06
2023-01-17T04:37:21.432Z,5.18
2023-01-17T04:39:49.439Z,5.33
2023-01-17T04:42:17.480Z,5.49
2023-01-17T04:44:45.538Z,5.63
2023-01-17T04:47:13.926Z,5.70
2023-01-17T04:49:44.115Z,5.74
2023-01-17T04:52:12.726Z,5.76
2023-01-17T04:54:41.723Z,5.77
2023-01-17T04:57:09.724Z,5.77
2023-01-17T04:59:37.772Z,5.77
2023-01-17T05:02:05.838Z,5.76
2023-01-17T05:04:34.322Z,5.75
2023-01-17T05:07:02.582Z,5.75
2023-01-17T05:09:30.853Z,5.74
2023-01-17T05:11:59.038Z,5.75
2023-01-17T05:14:27.518Z,5.75
2023-01-17T05:16:57.641Z,5.74
2023-01-17T05:19:27.140Z,5.72
2023-01-17T05:21:55.303Z,5.69
2023-01-17T05:24:23.490Z,5.64
2023-01-17T05:26:54.977Z,5.60
2023-01-17T05:29:23.308Z,5.54
2023-01-17T05:31:51.481Z,5.48
2023-01-17T05:34:19.660Z,5.42
2023-01-17T05:36:47.933Z,5.37
2023-01-17T05:39:16.718Z,5.31
2023-01-17T05:41:45.505Z,5.23
2023-01-17T05:44:15.422Z,5.15
2023-01-17T05:46:44.164Z,5.07
2023-01-17T05:49:12.277Z,5.02
2023-01-17T05:51:40.550Z,4.97
2023-01-17T05:54:09.035Z,4.94
2023-01-17T05:56:37.103Z,4.90
2023-01-17T05:59:05.101Z,4.86
2023-01-17T06:01:33.442Z,4.83
2023-01-17T06:04:01.616Z,4.79
2023-01-17T06:06:30.001Z,4.72
2023-01-17T06:08:58.173Z,4.67
2023-01-17T06:11:26.866Z,4.61
2023-01-17T06:13:55.030Z,4.53
2023-01-17T06:16:23.494Z,4.47
2023-01-17T06:18:51.592Z,4.46
2023-01-17T06:21:19.978Z,4.47
2023-01-17T06:23:48.347Z,4.49
2023-01-17T06:26:17.222Z,4.51
2023-01-17T06:28:45.410Z,4.52
2023-01-17T06:31:13.846Z,4.51
2023-01-17T06:33:42.097Z,4.49
2023-01-17T06:36:10.128Z,4.48
2023-01-17T06:38:38.195Z,4.46
2023-01-17T06:41:06.415Z,4.44
2023-01-17T06:43:35.153Z,4.40
2023-01-17T06:46:03.340Z,4.37
2023-01-17T06:48:31.820Z,4.34
2023-01-17T06:50:59.878Z,4.32
2023-01-17T06:53:27.773Z,4.30
2023-01-17T06:55:57.823Z,4.31
2023-01-17T06:58:26.139Z,4.34
2023-01-17T07:00:55.207Z,4.38
2023-01-17T07:03:27.430Z,4.43
2023-01-17T07:05:57.317Z,4.49
2023-01-17T07:08:25.485Z,4.55
2023-01-17T07:10:59.056Z,4.61
2023-01-17T07:13:28.643Z,4.68
2023-01-17T07:16:00.220Z,4.78
2023-01-17T07:18:29.445Z,4.89
2023-01-17T07:20:58.245Z,4.96
2023-01-17T07:23:27.223Z,5.03
2023-01-17T07:25:57.440Z,5.13
2023-01-17T07:28:27.464Z,5.20
2023-01-17T07:30:55.632Z,5.21
2023-01-17T07:33:23.816Z,5.18
2023-01-17T07:35:52.292Z,5.17
2023-01-17T07:38:20.552Z,5.16
2023-01-17T07:40:48.630Z,5.26
2023-01-17T07:43:17.617Z,5.44
2023-01-17T07:45:54.378Z,5.62
2023-01-17T07:48:25.037Z,5.76
2023-01-17T07:50:57.648Z,5.89
2023-01-17T07:53:28.557Z,5.99
2023-01-17T07:56:02.231Z,6.07
2023-01-17T07:58:31.180Z,6.16
2023-01-17T08:01:08.581Z,6.22
2023-01-17T08:03:41.684Z,6.28
2023-01-17T08:06:23.505Z,6.32
2023-01-17T08:08:58.975Z,6.35
2023-01-17T08:11:27.173Z,6.37
2023-01-17T08:13:59.491Z,6.39
2023-01-17T08:16:28.902Z,6.45
2023-01-17T08:18:57.988Z,6.51
2023-01-17T08:21:26.066Z,6.56
2023-01-17T08:23:54.237Z,6.61
2023-01-17T08:26:23.486Z,6.66
2023-01-17T08:28:57.285Z,6.75
2023-01-17T08:31:31.267Z,6.85
2023-01-17T08:34:00.954Z,6.92
2023-01-17T08:36:31.417Z,6.97
2023-01-17T08:38:59.565Z,7.00
2023-01-17T08:41:27.977Z,7.12
2023-01-17T08:43:57.127Z,7.74
2023-01-17T08:46:25.505Z,8.45
2023-01-17T08:48:59.191Z,8.64
2023-01-17T08:51:28.118Z,8.39
2023-01-17T08:53:56.836Z,8.14
2023-01-17T08:56:27.097Z,7.90
2023-01-17T08:58:55.487Z,7.70
2023-01-17T09:01:23.995Z,7.57
2023-01-17T09:03:52.717Z,7.51
2023-01-17T09:06:21.628Z,7.56
2023-01-17T09:08:54.890Z,7.65
2023-01-17T09:11:23.005Z,7.70
2023-01-17T09:13:51.076Z,7.91
2023-01-17T09:16:19.192Z,8.04
2023-01-17T09:18:47.460Z,8.10
2023-01-17T09:21:17.773Z,8.12
2023-01-17T09:23:46.036Z,8.10
2023-01-17T09:26:34.469Z,8.19
2023-01-17T09:29:04.276Z,8.87
2023-01-17T09:31:32.864Z,9.14
2023-01-17T09:34:02.194Z,8.99
2023-01-17T09:36:34.166Z,8.74
2023-01-17T09:39:03.119Z,8.53
2023-01-17T09:41:34.490Z,8.42
2023-01-17T09:44:10.103Z,8.55
2023-01-17T09:46:42.980Z,8.60
2023-01-17T09:49:19.258Z,8.57
2023-01-17T09:51:50.754Z,8.53
2023-01-17T09:54:26.712Z,8.48
2023-01-17T09:57:04.458Z,8.39
2023-01-17T10:00:09.702Z,8.29
2023-01-17T10:03:06.336Z,8.25
2023-01-17T10:05:37.583Z,8.51
2023-01-17T10:08:24.090Z,8.98
2023-01-17T10:11:22.065Z,9.85
2023-01-17T10:14:14.808Z,10.30
2023-01-17T10:17:02.533Z,10.38
2023-01-17T10:20:04.306Z,10.70
2023-01-17T10:22:54.514Z,11.23
2023-01-17T10:25:48.781Z,11.88
2023-01-17T10:28:25.859Z,12.61
2023-01-17T10:31:24.733Z,13.37
2023-01-17T10:33:55.396Z,14.29
2023-01-17T10:36:23.559Z,15.06
2023-01-17T10:38:55.424Z,15.38
2023-01-17T10:41:23.586Z,15.39
2023-01-17T10:44:02.206Z,15.39
2023-01-17T10:46:38.563Z,15.59
2023-01-17T10:49:16.907Z,16.10
2023-01-17T10:52:06.681Z,16.69
2023-01-17T10:54:54.187Z,17.15
2023-01-17T10:57:27.872Z,17.33
2023-01-17T11:00:00.718Z,16.96
2023-01-17T11:02:36.838Z,16.76
2023-01-17T11:05:21.825Z,16.78
2023-01-17T11:08:13.636Z,16.90
2023-01-17T11:10:46.630Z,16.69
2023-01-17T11:13:23.836Z,15.87
2023-01-17T11:16:00.956Z,15.69
2023-01-17T11:18:37.156Z,15.66
2023-01-17T11:21:13.700Z,15.38
2023-01-17T11:23:48.984Z,14.52
2023-01-17T11:26:30.125Z,13.66
2023-01-17T11:29:26.872Z,13.49
2023-01-17T11:31:58.823Z,13.73
2023-01-17T11:34:32.941Z,13.98
2023-01-17T11:37:09.940Z,14.01
2023-01-17T11:39:38.196Z,14.19
2023-01-17T11:42:26.945Z,14.41
2023-01-17T11:44:55.330Z,14.28
2023-01-17T11:47:23.607Z,14.10
2023-01-17T11:49:51.781Z,14.06
2023-01-17T11:52:26.352Z,14.07
2023-01-17T11:54:55.812Z,14.11
2023-01-17T11:57:33.430Z,14.26
2023-01-17T12:00:20.001Z,14.66
2023-01-17T12:03:07.122Z,14.96
2023-01-17T12:05:53.780Z,14.94
2023-01-17T12:08:21.895Z,14.86
2023-01-17T12:11:20.076Z,14.86
2023-01-17T12:14:01.809Z,15.10
2023-01-17T12:17:07.931Z,15.24
2023-01-17T12:20:01.662Z,14.98
2023-01-17T12:23:14.066Z,14.85
2023-01-17T12:26:04.298Z,14.64
2023-01-17T12:28:44.972Z,14.35
2023-01-17T12:31:38.371Z,14.47
2023-01-17T12:34:28.000Z,14.54
2023-01-17T12:37:05.199Z,14.54
2023-01-17T12:39:39.308Z,14.58
2023-01-17T12:42:22.428Z,14.72
2023-01-17T12:44:57.906Z,14.85
2023-01-17T12:47:26.865Z,14.62
2023-01-17T12:50:18.689Z,14.54
2023-01-17T12:53:03.137Z,14.31
2023-01-17T12:56:00.700Z,14.12
2023-01-17T12:58:38.606Z,13.99
2023-01-17T13:01:39.917Z,13.89
2023-01-17T13:04:46.892Z,13.73
2023-01-17T13:07:38.018Z,13.37
2023-01-17T13:10:32.069Z,13.20
2023-01-17T13:13:12.390Z,13.27
2023-01-17T13:15:43.119Z,13.30
2023-01-17T13:18:18.176Z,13.19
2023-01-17T13:20:46.435Z,12.85
2023-01-17T13:23:40.597Z,12.55
2023-01-17T13:26:34.169Z,12.33
2023-01-17T13:29:27.336Z,12.23
2023-01-17T13:32:28.887Z,12.18
2023-01-17T13:35:03.221Z,12.07
2023-01-17T13:37:37.233Z,12.06
2023-01-17T13:40:54.191Z,11.85
2023-01-17T13:43:26.347Z,11.52
2023-01-17T13:46:00.006Z,11.27
2023-01-17T13:48:31.346Z,11.07
2023-01-17T13:51:03.642Z,10.92
2023-01-17T13:53:33.332Z,10.77
2023-01-17T13:56:18.636Z,10.63
2023-01-17T13:58:58.042Z,10.51
2023-01-17T14:01:26.457Z,10.41
2023-01-17T14:03:55.304Z,10.32
2023-01-17T14:06:40.712Z,10.23
2023-01-17T14:09:24.522Z,10.12
2023-01-17T14:11:57.398Z,10.00
2023-01-17T14:14:41.134Z,9.85
2023-01-17T14:17:25.702Z,9.71
2023-01-17T14:20:01.193Z,9.60
2023-01-17T14:22:36.476Z,9.47
2023-01-17T14:25:15.349Z,9.35
2023-01-17T14:28:19.070Z,9.22
2023-01-17T14:30:55.370Z,9.10
2023-01-17T14:33:34.919Z,8.99
2023-01-17T14:36:23.360Z,8.86
2023-01-17T14:38:51.532Z,8.72
2023-01-17T14:41:24.803Z,8.58
2023-01-17T14:43:53.932Z,8.47
2023-01-17T14:46:34.909Z,8.35
2023-01-17T14:49:06.501Z,8.24
2023-01-17T14:51:35.620Z,8.12
2023-01-17T14:54:15.860Z,8.01
2023-01-17T14:56:44.664Z,7.91
2023-01-17T14:59:21.800Z,7.81
2023-01-17T15:02:07.082Z,7.70
2023-01-17T15:04:39.956Z,7.60
2023-01-17T15:07:17.012Z,7.48
2023-01-17T15:09:46.438Z,7.36
2023-01-17T15:12:15.912Z,7.25
2023-01-17T15:14:46.752Z,7.13
2023-01-17T15:17:25.054Z,7.03
2023-01-17T15:20:01.751Z,6.94
2023-01-17T15:22:30.880Z,6.86
2023-01-17T15:24:59.900Z,6.77
2023-01-17T15:27:28.886Z,6.69
2023-01-17T15:30:02.334Z,6.63
2023-01-17T15:32:33.845Z,6.56
2023-01-17T15:35:03.404Z,6.49
2023-01-17T15:37:34.941Z,6.45
2023-01-17T15:40:18.903Z,6.44
2023-01-17T15:42:59.499Z,6.44
2023-01-17T15:45:33.727Z,6.44
2023-01-17T15:48:45.154Z,6.46
2023-01-17T15:51:14.611Z,6.47
2023-01-17T15:53:44.833Z,6.50
2023-01-17T15:56:22.720Z,6.53
2023-01-17T15:58:51.411Z,6.55
2023-01-17T16:01:31.422Z,6.56
2023-01-17T16:04:00.291Z,6.59
2023-01-17T16:06:45.763Z,6.62
2023-01-17T16:09:25.062Z,6.64
2023-01-17T16:11:53.344Z,6.65
2023-01-17T16:14:21.718Z,6.69
2023-01-17T16:16:53.923Z,6.72
2023-01-17T16:19:22.983Z,6.72
2023-01-17T16:21:51.658Z,6.67
2023-01-17T16:24:19.980Z,6.59
2023-01-17T16:26:50.053Z,6.52
2023-01-17T16:29:20.793Z,6.47
2023-01-17T16:31:49.171Z,6.46
2023-01-17T16:34:17.667Z,6.47
2023-01-17T16:36:46.653Z,6.53
2023-01-17T16:39:16.359Z,6.60
2023-01-17T16:41:44.986Z,6.65
2023-01-17T16:44:13.007Z,6.69
2023-01-17T16:46:41.278Z,6.71
2023-01-17T16:49:09.611Z,6.70
2023-01-17T16:51:38.951Z,6.72
2023-01-17T16:54:07.133Z,6.73
2023-01-17T16:56:35.707Z,6.75
2023-01-17T16:59:03.993Z,6.82
2023-01-17T17:01:32.531Z,6.91
2023-01-17T17:04:01.047Z,6.99
2023-01-17T17:06:31.451Z,7.03
2023-01-17T17:09:02.795Z,7.04
2023-01-17T17:11:31.095Z,7.07
2023-01-17T17:14:00.398Z,7.10
2023-01-17T17:16:30.721Z,7.09
2023-01-17T17:19:01.598Z,7.08
2023-01-17T17:21:32.805Z,7.07
2023-01-17T17:24:01.997Z,7.08
2023-01-17T17:26:34.193Z,7.07
2023-01-17T17:29:03.104Z,7.06
2023-01-17T17:31:31.882Z,7.04
2023-01-17T17:34:03.898Z,7.00
2023-01-17T17:36:33.729Z,6.96
2023-01-17T17:39:04.567Z,6.92
2023-01-17T17:41:34.771Z,6.88
2023-01-17T17:44:04.118Z,6.85
2023-01-17T17:46:35.189Z,6.82
2023-01-17T17:49:05.123Z,6.79
2023-01-17T17:51:39.448Z,6.77
2023-01-17T17:54:10.634Z,6.75
2023-01-17T17:56:39.902Z,6.75
2023-01-17T17:59:09.925Z,6.77
2023-01-17T18:01:38.954Z,6.80
2023-01-17T18:04:09.003Z,6.81
2023-01-17T18:06:38.690Z,6.81
2023-01-17T18:09:09.188Z,6.80
2023-01-17T18:11:39.738Z,6.78
2023-01-17T18:14:12.877Z,6.77
2023-01-17T18:16:43.673Z,6.74
2023-01-17T18:19:20.375Z,6.72
2023-01-17T18:21:51.450Z,6.71
2023-01-17T18:24:22.103Z,6.70
2023-01-17T18:26:57.809Z,6.69
2023-01-17T18:29:27.416Z,6.70
2023-01-17T18:31:56.818Z,6.70
2023-01-17T18:34:29.612Z,6.69
2023-01-17T18:36:58.995Z,6.69
2023-01-17T18:39:30.105Z,6.66
2023-01-17T18:41:59.151Z,6.63
2023-01-17T18:44:28.218Z,6.60
2023-01-17T18:47:05.097Z,6.58
2023-01-17T18:49:35.274Z,6.54
2023-01-17T18:52:03.589Z,6.51
2023-01-17T18:54:34.012Z,6.49
2023-01-17T18:57:02.094Z,6.47
2023-01-17T18:59:30.458Z,6.45
2023-01-17T19:01:59.165Z,6.43
2023-01-17T19:04:28.765Z,6.41
2023-01-17T19:06:57.246Z,6.37
2023-01-17T19:09:25.815Z,6.36
2023-01-17T19:11:53.893Z,6.35
2023-01-17T19:14:22.694Z,6.34
2023-01-17T19:16:51.062Z,6.34
2023-01-17T19:19:20.249Z,6.33
2023-01-17T19:21:51.693Z,6.32
2023-01-17T19:24:20.187Z,6.30
2023-01-17T19:26:54.195Z,6.29
2023-01-17T19:29:23.097Z,6.29
2023-01-17T19:31:51.355Z,6.28
2023-01-17T19:34:20.461Z,6.25
2023-01-17T19:36:49.156Z,6.23
2023-01-17T19:39:17.630Z,6.22
2023-01-17T19:41:47.150Z,6.20
2023-01-17T19:44:15.662Z,6.19
2023-01-17T19:46:47.399Z,6.18
2023-01-17T19:49:19.816Z,6.18
2023-01-17T19:51:49.758Z,6.19
2023-01-17T19:54:18.341Z,6.20
2023-01-17T19:56:46.699Z,6.22
2023-01-17T19:59:15.493Z,6.26
2023-01-17T20:01:43.744Z,6.27
2023-01-17T20:04:12.973Z,6.28
2023-01-17T20:06:42.161Z,6.29
2023-01-17T20:09:10.331Z,6.28
2023-01-17T20:11:42.301Z,6.29
2023-01-17T20:14:14.273Z,6.28
2023-01-17T20:16:44.085Z,6.27
2023-01-17T20:19:12.170Z,6.27
2023-01-17T20:21:40.526Z,6.27
2023-01-17T20:24:11.248Z,6.26
2023-01-17T20:26:40.976Z,6.24
2023-01-17T20:29:13.346Z,6.21
2023-01-17T20:31:43.080Z,6.19
2023-01-17T20:34:13.644Z,6.19
2023-01-17T20:36:42.477Z,6.19
2023-01-17T20:39:13.597Z,6.17
2023-01-17T20:41:43.716Z,6.14
2023-01-17T20:44:15.288Z,6.11
2023-01-17T20:46:44.065Z,6.09
2023-01-17T20:49:15.772Z,6.08
2023-01-17T20:51:45.493Z,6.09
2023-01-17T20:54:15.661Z,6.10
2023-01-17T20:56:46.874Z,6.11
2023-01-17T20:59:18.554Z,6.10
2023-01-17T21:01:47.326Z,6.09
2023-01-17T21:04:16.800Z,6.08
2023-01-17T21:06:45.328Z,6.10
2023-01-17T21:09:15.436Z,6.13
2023-01-17T21:11:43.730Z,6.16
2023-01-17T21:14:11.968Z,6.19
2023-01-17T21:16:40.737Z,6.22
2023-01-17T21:19:12.194Z,6.25
2023-01-17T21:21:40.723Z,6.28
2023-01-17T21:24:09.400Z,6.32
2023-01-17T21:26:39.038Z,6.33
2023-01-17T21:29:08.703Z,6.32
2023-01-17T21:31:38.830Z,6.27
2023-01-17T21:34:08.627Z,6.22
2023-01-17T21:36:39.697Z,6.11
2023-01-17T21:39:13.369Z,6.01
2023-01-17T21:41:43.225Z,5.97
2023-01-17T21:44:20.348Z,5.94
2023-01-17T21:46:49.574Z,5.88
2023-01-17T21:49:18.255Z,5.78
2023-01-17T21:51:55.296Z,5.69
2023-01-17T21:54:45.055Z,5.64
2023-01-17T21:57:33.569Z,5.60
2023-01-17T22:00:01.594Z,5.55
2023-01-17T22:02:29.724Z,5.53
2023-01-17T22:04:57.987Z,5.50
2023-01-17T22:07:29.279Z,5.49
2023-01-17T22:09:57.706Z,5.53
2023-01-17T22:12:26.185Z,5.55
2023-01-17T22:14:54.666Z,5.55
2023-01-17T22:17:22.904Z,5.59
2023-01-17T22:19:51.216Z,5.57
2023-01-17T22:22:19.317Z,5.53
2023-01-17T22:24:47.351Z,5.50
2023-01-17T22:27:15.433Z,5.46
2023-01-17T22:29:43.391Z,5.40
2023-01-17T22:32:11.381Z,5.36
2023-01-17T22:34:39.558Z,5.31
2023-01-17T22:37:10.307Z,5.27
2023-01-17T22:39:39.265Z,5.26
2023-01-17T22:42:07.759Z,5.29
2023-01-17T22:44:36.016Z,5.31
2023-01-17T22:47:04.067Z,5.33
2023-01-17T22:49:32.139Z,5.34
2023-01-17T22:52:00.849Z,5.34
2023-01-17T22:54:29.010Z,5.35
2023-01-17T22:56:57.088Z,5.40
2023-01-17T22:59:25.261Z,5.42
2023-01-17T23:01:53.633Z,5.40
2023-01-17T23:04:21.601Z,5.38
2023-01-17T23:06:49.664Z,5.33
2023-01-17T23:09:18.049Z,5.26
2023-01-17T23:11:52.833Z,5.20
2023-01-17T23:14:24.031Z,5.17
2023-01-17T23:17:14.626Z,5.14
2023-01-17T23:19:43.932Z,5.10
2023-01-17T23:22:21.220Z,5.10
2023-01-17T23:24:50.949Z,5.07
2023-01-17T23:27:45.507Z,5.04
2023-01-17T23:30:16.467Z,5.01
2023-01-17T23:32:56.635Z,4.99
2023-01-17T23:35:33.534Z,4.95
2023-01-17T23:38:21.004Z,4.93
2023-01-17T23:41:07.913Z,4.97
2023-01-17T23:43:37.392Z,5.16
2023-01-17T23:46:05.808Z,5.41
2023-01-17T23:48:33.877Z,5.70
2023-01-17T23:51:09.628Z,5.97
2023-01-17T23:53:38.951Z,6.23
2023-01-17T23:56:14.884Z,6.49
2023-01-17T23:58:43.157Z,6.79
